• Join FlightAware (Why Join?)
  • Login
  • US Flag GB Flag 
11:48 EDT


 

Airport Tracker/Info


-or-


 

Live Flight TrackerFlight Track Log ✈ UAL4625 ✈ 28-Apr-2013 ✈ KEWR - KCHS

Flight Track Log - Related Links

Times and Time Zones

All times are in EDT time to prevent confusion due to time zone crossing. See the UAL4625 flight status page for this flight to view local times or setup timezone preferences in your user account.

Time Position Orientation Groundspeed Altitude Reporting Facility
EDT Latitude Longitude Course Direction KTS MPH feet Rate Location/Type
08:17 40.6500 -74.1833 180° South 188 216 1,900  Level New York TRACON
08:18 40.5833 -74.2333 210° Southwest 241 277 3,800 2,040 Climbing New York TRACON
08:19 40.5333 -74.2667 207° Southwest 262 302 6,000 1,020 Climbing New York TRACON
08:20 40.2993 -74.1502 194° South  Level FlightAware Approximate
08:20 40.4500 -74.2333 163° South 266 306 6,000  Level New York TRACON
08:21 40.1967 -74.1844 194° South  Level FlightAware Approximate
08:22 40.0947 -74.2167 180° South  Level FlightAware Approximate
08:22 40.3067 -74.1650 160° South 265 305 6,800  Level New York Center
08:23 40.2392 -74.1861 193° South 265 305 9,000 2,280 Climbing New York Center
08:24 40.1550 -74.2117 193° South 281 323 11,400 1,740 Climbing New York Center
08:25 40.0689 -74.2347 192° South 300 345 12,500 1,200 Climbing New York Center
08:26 39.9792 -74.2756 199° South 322 371 14,000 1,380 Climbing Washington Center
08:27 39.9008 -74.3528 217° Southwest 334 384 15,500 1,440 Climbing Washington Center
08:28 39.8225 -74.4297 217° Southwest 356 410 17,000 1,260 Climbing Washington Center
08:29 39.7525 -74.5175 224° Southwest 361 415 18,100 1,260 Climbing Washington Center
08:30 39.6825 -74.6128 226° Southwest 361 415 19,600 1,380 Climbing Washington Center
08:31 39.6103 -74.7053 225° Southwest 361 415 21,000 1,440 Climbing Washington Center
08:32 39.5381 -74.7978 225° Southwest 361 415 22,500 1,500 Climbing Washington Center
08:33 39.4678 -74.8953 227° Southwest 366 421 24,000 1,440 Climbing Washington Center
08:34 39.3953 -74.9900 225° Southwest 366 421 25,500 1,500 Climbing Washington Center
08:35 39.3247 -75.0819 225° Southwest 366 421 27,000 1,140 Climbing Washington Center
08:36 39.2375 -75.1603 215° Southwest 366 421 27,900 960 Climbing Washington Center
08:37 39.1503 -75.2303 212° Southwest 376 433 29,000 1,320 Climbing Washington Center
08:38 39.0567 -75.2950 208° Southwest 381 438 30,600 1,620 Climbing Washington Center
08:39 38.9714 -75.3647 212° Southwest 381 438 32,300 1,560 Climbing Washington Center
08:40 38.8861 -75.4264 209° Southwest 376 433 33,700 1,200 Climbing Washington Center
08:41 38.8028 -75.4906 211° Southwest 360 414 34,800 1,080 Climbing Washington Center
08:42 38.7194 -75.5544 211° Southwest 360 414 35,900 600 Climbing Washington Center
08:43 38.6319 -75.6208 211° Southwest 360 414 36,000  Climbing Washington Center
08:44 38.5317 -75.6925 209° Southwest 374 430 36,000  Level Washington Center
08:45 38.4336 -75.7639 210° Southwest 397 457 36,000  Level Washington Center
08:46 38.3333 -75.8378 210° Southwest 413 475 36,000  Level Washington Center
08:47 38.2353 -75.9117 211° Southwest 413 475 36,000  Level Washington Center
08:48 38.1392 -75.9825 210° Southwest 413 475 36,000  Level Washington Center
08:49 38.0408 -76.0558 210° Southwest 413 475 36,000  Level Washington Center
08:50 37.9425 -76.1264 210° Southwest 413 475 36,000  Level Washington Center
08:51 37.8442 -76.1992 210° Southwest 413 475 36,000  Level Washington Center
08:52 37.7478 -76.2694 210° Southwest 413 475 36,000  Level Washington Center
08:53 37.6475 -76.3419 210° Southwest 413 475 36,000  Level Washington Center
08:54 37.5489 -76.4142 210° Southwest 413 475 36,000  Level Washington Center
08:55 37.4461 -76.4864 209° Southwest 418 481 36,000  Level Washington Center
08:56 37.3433 -76.5611 210° Southwest 423 487 36,000  Level Washington Center
08:57 37.2447 -76.6328 210° Southwest 423 487 36,000  Level Washington Center
08:58 37.1439 -76.7044 210° Southwest 423 487 36,000  Level Washington Center
08:59 37.0472 -76.7758 211° Southwest 423 487 36,000  Level Washington Center
09:00 36.9486 -76.8444 209° Southwest 417 480 36,000  Level Washington Center
09:01 36.8539 -76.9131 210° Southwest 412 474 36,000  Level Washington Center
09:02 36.7592 -76.9817 210° Southwest 406 467 36,000  Level Washington Center
09:03 36.6644 -77.0600 214° Southwest 406 467 36,000  Level Washington Center
09:04 36.5736 -77.1436 216° Southwest 412 474 36,000  Level Washington Center
09:05 36.4808 -77.2350 218° Southwest 423 487 36,000  Level Washington Center
09:06 36.3897 -77.3206 217° Southwest 418 481 36,000  Level Washington Center
09:07 36.2967 -77.4036 216° Southwest 418 481 36,000  Level Washington Center
09:08 36.2225 -77.4792 219° Southwest 412 474 36,000  Level Washington Center
09:09 36.1314 -77.5644 217° Southwest 412 474 36,000  Level Washington Center
09:10 36.0403 -77.6469 216° Southwest 412 474 36,000  Level Washington Center
09:11 35.9514 -77.7267 216° Southwest 412 474 36,000  Level Washington Center
09:12 35.8539 -77.8036 213° Southwest 417 480 36,000  Level Washington Center
09:13 35.7544 -77.8803 212° Southwest 422 486 36,000  Level Washington Center
09:14 35.6569 -77.9567 212° Southwest 422 486 36,000  Level Washington Center
09:15 35.5594 -78.0303 212° Southwest 422 486 36,000 -780 Level Washington Center
09:16 35.4597 -78.1089 213° Southwest 422 486 34,500 -1,500 Descending Washington Center
09:17 35.3622 -78.1822 212° Southwest 422 486 33,000 -1,260 Descending Washington Center
09:18 35.2647 -78.2606 213° Southwest 422 486 32,000 -540 Descending Washington Center
09:19 35.1606 -78.3408 212° Southwest 422 486 32,000  Level Washington Center
09:20 35.0628 -78.4136 211° Southwest 422 486 32,000  Level Washington Center
09:21 34.9631 -78.4914 213° Southwest 422 486 32,000  Level Washington Center
09:22 34.8608 -78.5711 213° Southwest 427 491 32,000  Level Washington Center
09:23 34.7608 -78.6483 212° Southwest 427 491 32,000 -900 Level Washington Center
09:25 34.6175 -78.7528 211° Southwest 446 513 29,900 -1,500 Descending Jacksonville Center
09:26 34.5219 -78.8278 213° Southwest 435 501 28,400 -960 Descending Jacksonville Center
09:27 34.4122 -78.9186 214° Southwest 435 501 28,000 -600 Descending Jacksonville Center
09:28 34.3267 -78.9828 212° Southwest 405 466 27,200 -1,140 Descending Jacksonville Center
09:29 34.2408 -79.0394 209° Southwest 380 437 25,800 -1,500 Descending Jacksonville Center
09:30 34.1461 -79.0814 200° South 361 415 24,300 -1,500 Descending Jacksonville Center
09:31 34.0556 -79.1203 200° South 356 410 22,800 -1,500 Descending Jacksonville Center
09:32 33.9647 -79.1592 200° South 351 404 21,400 -1,440 Descending Jacksonville Center
09:33 33.8700 -79.2033 201° Southwest 351 404 20,000 -1,500 Descending Jacksonville Center
09:34 33.7753 -79.2472 201° Southwest 361 415 18,500 -1,500 Descending Jacksonville Center
09:35 33.7039 -79.3000 212° Southwest 343 395 17,100 -1,440 Descending Jacksonville Center
09:36 33.6222 -79.3608 212° Southwest 331 381 15,700 -1,500 Descending Jacksonville Center
09:37 33.5425 -79.4239 213° Southwest 342 394 14,200 -1,500 Descending Jacksonville Center
09:38 33.4667 -79.4792 211° Southwest 337 388 12,700 -1,500 Descending Jacksonville Center
09:39 33.3911 -79.5367 212° Southwest 332 382 11,300 -1,080 Descending Jacksonville Center
09:40 33.3156 -79.5942 212° Southwest 332 382 10,600 -1,080 Descending Jacksonville Center
09:41 33.2519 -79.6414 212° Southwest 306 352 9,200 -1,560 Descending Jacksonville Center
09:42 33.1886 -79.6908 213° Southwest 290 334 7,500 -1,380 Descending Jacksonville Center
09:43 33.1272 -79.7400 214° Southwest 279 321 6,500 -1,080 Descending Jacksonville Center
09:44 33.0658 -79.7869 213° Southwest 274 315 5,400 -840 Descending Jacksonville Center
09:45 33.0186 -79.8206 211° Southwest 269 310 4,900 -300 Descending Jacksonville Center
09:46 32.9550 -79.8722 214° Southwest 264 304 4,900 -180 Level Jacksonville Center
09:47 32.8956 -79.9189 213° Southwest 264 304 4,600 -600 Descending Jacksonville Center
09:48 32.8383 -79.9678 216° Southwest 259 298 3,700 -900 Descending Jacksonville Center